Latest Coastal Weather Observations for Darwin Harbour

IDD60701

Issued at 11:41 am CST Monday 5 December 2016 (issued every 10 minutes, with the page automatically refreshed every 10 minutes)

About coastal observations | Map of coastal stations | Coastal observations for NT | Marine services | Other Formats
Station Details ID: 014072 Name: DARWIN NTC AWS Lat: -12.47 Lon: 130.85 Height: 0.0 m
Data from the previous 72 hours. | See also: Recent months for locations in Northern Territory
Date/Time
CST
Temp
°C
Wind Pressure Rain since
9am
mm
Weather Cloud Vis
km
Sea
Height
m
Swell
Dir  Spd
kts
Gust
kts
hPa Trend Height
m
Period
s
Dir
05/11:30am 31.2 SW 2 4 1008.6 - - - - - - - - -
05/11:00am 31.2 SE 4 6 1008.9 - - - - - - - - -
05/10:30am 30.9 ESE 5 6 1009.2 - - - - - - - - -
05/10:00am 32.0 ENE 4 8 1009.4 - - - - - - - - -
05/09:30am 31.8 NE 3 7 1009.5 - - - - - - - - -
05/09:00am 31.3 ENE 4 7 1009.6 - - - - - - - - -
05/08:30am 30.5 E 4 7 1009.4 - - - - - - - - -
05/08:00am 30.1 E 4 6 1009.1 - - - - - - - - -
05/07:30am 29.5 E 4 6 1009.0 - - - - - - - - -
05/07:00am 28.9 E 5 6 1008.7 - - - - - - - - -
05/06:30am 28.9 ENE 4 6 1008.2 - - - - - - - - -
05/06:00am 28.4 NE 2 3 1008.1 - - - - - - - - -
05/05:30am 29.0 ENE 3 6 1007.7 - - - - - - - - -
05/05:00am 29.2 NE 2 4 1007.7 - - - - - - - - -
05/04:30am 29.0 NNE 1 3 1007.4 - - - - - - - - -
05/04:00am 29.2 ENE 1 3 1007.4 - - - - - - - - -
05/03:30am 29.1 N 1 2 1007.2 - - - - - - - - -
05/03:00am 29.3 NNE 2 5 1007.1 - - - - - - - - -
05/02:30am 29.3 NE 2 5 1007.1 - - - - - - - - -
05/02:00am 29.4 NE 2 5 1007.1 - - - - - - - - -
05/01:30am 29.5 NE 2 7 1007.2 - - - - - - - - -
05/01:00am 29.7 NNE 3 8 1007.6 - - - - - - - - -
05/12:30am 29.9 NNE 4 7 1007.8 - - - - - - - - -
05/12:00am 30.0 N 4 9 1008.1 - - - - - - - - -
 
Date/Time
CST
Temp
°C
Wind Pressure Rain since
9am
mm
Weather Cloud Vis
km
Sea
Height
m
Swell
Dir  Spd
kts
Gust
kts
hPa Trend Height
m
Period
s
Dir
04/11:30pm 30.1 N 6 9 1008.2 - - - - - - - - -
04/11:00pm 30.4 N 5 9 1008.2 - - - - - - - - -
04/10:30pm 30.6 NNE 6 13 1008.1 - - - - - - - - -
04/10:00pm 30.9 N 5 8 1008.0 - - - - - - - - -
04/09:30pm 31.1 NNE 3 7 1008.0 - - - - - - - - -
04/09:00pm 31.1 NNE 4 9 1007.8 - - - - - - - - -
04/08:30pm 31.2 NNE 6 10 1007.4 - - - - - - - - -
04/08:00pm 31.4 NNE 5 10 1007.2 - - - - - - - - -
04/07:30pm 31.5 NNE 6 11 1007.0 - - - - - - - - -
04/07:00pm 31.9 NE 8 17 1006.7 - - - - - - - - -
04/06:30pm 32.6 NE 7 15 1006.3 - - - - - - - - -
04/06:00pm 33.2 NE 7 14 1006.1 - - - - - - - - -
04/05:30pm 33.8 NE 7 14 1005.9 - - - - - - - - -
04/05:00pm 34.1 ENE 8 18 1005.8 - - - - - - - - -
04/04:30pm 32.8 W 9 13 1005.8 - - - - - - - - -
04/04:00pm 32.1 WNW 9 12 1006.2 - - - - - - - - -
04/03:30pm 31.7 WNW 10 13 1006.6 - - - - - - - - -
04/03:00pm 31.9 WNW 9 14 1006.8 - - - - - - - - -
04/02:30pm 32.2 WNW 9 13 1007.2 - - - - - - - - -
04/02:00pm 32.7 SE 6 10 1007.4 - - - - - - - - -
04/01:30pm 32.6 ESE 6 12 1007.9 - - - - - - - - -
04/01:00pm 32.6 ESE 7 14 1008.3 - - - - - - - - -
04/12:30pm 32.3 ENE 6 12 1008.5 - - - - - - - - -
04/12:00pm 32.2 ENE 6 10 1008.8 - - - - - - - - -
04/11:30am 31.6 ENE 7 11 1009.2 - - - - - - - - -
04/11:00am 31.7 E 7 12 1009.4 - - - - - - - - -
04/10:30am 30.3 ESE 5 8 1009.7 - - - - - - - - -
04/10:00am 30.1 SE 4 7 1009.9 - - - - - - - - -
04/09:30am 29.4 ESE 6 8 1010.0 - - - - - - - - -
04/09:00am 28.9 ESE 7 10 1010.0 - - - - - - - - -
04/08:30am 28.5 ESE 8 10 1010.1 - - - - - - - - -
04/08:00am 28.1 ESE 9 11 1010.0 - - - - - - - - -
04/07:30am 27.7 ESE 9 10 1009.9 - - - - - - - - -
04/07:00am 27.7 SE 8 9 1009.7 - - - - - - - - -
04/06:30am 27.6 SE 7 9 1009.3 - - - - - - - - -
04/06:00am 27.7 SE 6 8 1008.9 - - - - - - - - -
04/05:30am 27.7 SE 6 8 1008.4 - - - - - - - - -
04/05:00am 27.9 SSE 4 6 1008.0 - - - - - - - - -
04/04:30am 28.0 SSE 5 7 1007.8 - - - - - - - - -
04/04:00am 28.3 S 6 7 1007.6 - - - - - - - - -
04/03:30am 28.2 SSE 4 6 1007.5 - - - - - - - - -
04/03:00am 28.1 SSE 4 6 1007.6 - - - - - - - - -
04/02:30am 28.2 SSE 4 6 1007.6 - - - - - - - - -
04/02:00am 28.4 S 4 6 1007.8 - - - - - - - - -
04/01:30am 28.4 S 5 7 1008.3 - - - - - - - - -
04/01:00am 28.8 SSW 5 6 1008.6 - - - - - - - - -
04/12:30am 29.5 NW 1 3 1009.2 - - - - - - - - -
04/12:00am 29.4 CALM 0 1 1009.5 - - - - - - - - -
 
Date/Time
CST
Temp
°C
Wind Pressure Rain since
9am
mm
Weather Cloud Vis
km
Sea
Height
m
Swell
Dir  Spd
kts
Gust
kts
hPa Trend Height
m
Period
s
Dir
03/11:30pm 29.5 WNW 1 2 1009.7 - - - - - - - - -
03/11:00pm 29.3 NNW 2 3 1010.0 - - - - - - - - -
03/10:30pm 29.4 NW 2 3 1010.0 - - - - - - - - -
03/10:00pm 29.5 W 3 5 1010.0 - - - - - - - - -
03/09:30pm 29.6 W 4 7 1009.8 - - - - - - - - -
03/09:00pm 29.8 W 4 6 1009.6 - - - - - - - - -
03/08:30pm 29.8 WNW 5 8 1009.2 - - - - - - - - -
03/08:00pm 29.7 WNW 5 8 1009.0 - - - - - - - - -
03/07:30pm 29.7 NW 3 5 1008.6 - - - - - - - - -
03/07:00pm 29.7 WNW 5 6 1008.3 - - - - - - - - -
03/06:30pm 29.6 NW 5 8 1007.8 - - - - - - - - -
03/06:00pm 29.7 WNW 7 11 1007.8 - - - - - - - - -
03/05:30pm 29.9 WNW 7 11 1007.6 - - - - - - - - -
03/05:00pm 30.1 WNW 7 11 1007.6 - - - - - - - - -
03/04:30pm 30.4 NW 6 9 1007.4 - - - - - - - - -
03/04:00pm 29.6 WSW 4 5 1007.3 - - - - - - - - -
03/03:30pm 29.4 W 4 6 1007.0 - - - - - - - - -
03/03:00pm 29.6 W 7 10 1007.6 - - - - - - - - -
03/02:30pm 29.3 WSW 14 27 1007.7 - - - - - - - - -
03/02:26pm 28.7 SW 16 27 1007.7 - - - - - - - - -
03/02:21pm 27.2 SW 18 27 1007.6 - - - - - - - - -
03/02:00pm 31.2 WNW 7 12 1007.8 - - - - - - - - -
03/01:30pm 30.8 W 4 6 1008.0 - - - - - - - - -
03/01:00pm 30.0 SSW 7 9 1008.2 - - - - - - - - -
03/12:30pm 30.7 SW 4 6 1008.7 - - - - - - - - -
03/12:00pm 31.3 E 4 7 1009.4 - - - - - - - - -
03/11:30am 31.5 ENE 3 8 1009.7 - - - - - - - - -
03/11:00am 31.8 NE 2 9 1009.7 - - - - - - - - -
03/10:30am 30.1 N 3 7 1010.0 - - - - - - - - -
03/10:00am 29.8 E 3 6 1010.5 - - - - - - - - -
03/09:30am 29.0 E 4 7 1010.6 - - - - - - - - -
03/09:00am 28.3 ESE 6 9 1010.1 - - - - - - - - -
03/08:30am 28.5 E 14 22 1009.6 - - - - - - - - -
03/08:00am 28.8 E 8 11 1009.5 - - - - - - - - -
03/07:30am 28.8 ENE 3 5 1009.3 - - - - - - - - -
03/07:00am 28.3 ENE 4 6 1008.7 - - - - - - - - -
03/06:30am 28.1 NNE 3 4 1008.6 - - - - - - - - -
03/06:00am 27.7 NE 3 7 1007.8 - - - - - - - - -
03/05:30am 28.0 NE 2 6 1007.8 - - - - - - - - -
03/05:00am 28.3 ENE 6 11 1008.0 - - - - - - - - -
03/04:30am 28.7 NE 1 3 1007.7 - - - - - - - - -
03/04:00am 28.6 ENE 3 7 1007.5 - - - - - - - - -
03/03:30am 28.7 NE 3 7 1007.2 - - - - - - - - -
03/03:00am 28.7 NE 3 6 1007.5 - - - - - - - - -
03/02:30am 28.6 NE 2 5 1007.6 - - - - - - - - -
03/02:00am 28.9 NE 3 6 1007.8 - - - - - - - - -
03/01:30am 29.0 ENE 3 7 1008.2 - - - - - - - - -
03/01:00am 29.3 NE 3 6 1008.5 - - - - - - - - -
03/12:30am 29.5 ENE 3 7 1008.6 - - - - - - - - -
03/12:00am 29.8 N 4 12 1008.5 - - - - - - - - -
 
Date/Time
CST
Temp
°C
Wind Pressure Rain since
9am
mm
Weather Cloud Vis
km
Sea
Height
m
Swell
Dir  Spd
kts
Gust
kts
hPa Trend Height
m
Period
s
Dir
02/11:30pm 30.0 N 5 12 1008.4 - - - - - - - - -
02/11:00pm 30.1 N 4 9 1008.6 - - - - - - - - -
02/10:30pm 29.9 N 6 12 1008.7 - - - - - - - - -
02/10:00pm 29.8 NNW 5 9 1008.7 - - - - - - - - -
02/09:30pm 29.9 N 6 10 1008.4 - - - - - - - - -
02/09:00pm 30.1 NNE 5 10 1008.2 - - - - - - - - -
02/08:30pm 30.4 NE 6 12 1007.8 - - - - - - - - -
02/08:00pm 30.2 NE 5 10 1007.3 - - - - - - - - -
02/07:30pm 30.5 NE 6 14 1006.7 - - - - - - - - -
02/07:00pm 30.6 ENE 3 7 1006.3 - - - - - - - - -
02/06:30pm 31.0 ENE 4 9 1006.1 - - - - - - - - -
02/06:00pm 31.2 ENE 4 8 1005.9 - - - - - - - - -
02/05:30pm 30.0 NE 7 13 1005.4 - - - - - - - - -
02/05:00pm 31.0 NE 6 18 1005.6 - - - - - - - - -
02/04:30pm 31.7 WNW 5 7 1005.6 - - - - - - - - -
02/04:00pm 32.0 WNW 7 9 1006.1 - - - - - - - - -
02/03:30pm 31.7 WNW 7 10 1006.3 - - - - - - - - -
02/03:00pm 31.7 WNW 7 10 1006.4 - - - - - - - - -
02/02:30pm 31.6 WSW 5 7 1006.5 - - - - - - - - -
02/02:00pm 31.8 WSW 3 4 1006.8 - - - - - - - - -
02/01:30pm 31.2 SW 6 7 1007.2 - - - - - - - - -
02/01:00pm 30.8 SW 6 7 1007.5 - - - - - - - - -
02/12:30pm 30.6 S 3 4 1007.8 - - - - - - - - -
02/12:00pm 30.5 S 3 4 1008.5 - - - - - - - - -

Other Formats:

Comma delimited format used in spreadsheet applications
http://www.bom.gov.au/fwo/IDD60701/IDD60701.95122.axf

JavaScript Object Notation format (JSON) in row-major order
http://www.bom.gov.au/fwo/IDD60701/IDD60701.95122.json